Time;durP1;ratioP1;P1;durP2;ratioP2;P2;SDS_P1;SDS_P2;PMS_P1;PMS_P2;Temp;Humidity;BMP_temperature;BMP_pressure;BME280_temperature;BME280_humidity;BME280_pressure;Samples;Min_cycle;Max_cycle;Signal;HPM_P1;HPM_P2
2021/04/14 00:00:22;;;;;;;8.25;4.43;;;;;;;6.25;54.12;103339.28;5034309;28;20396;-86
2021/04/14 00:02:49;;;;;;;6.60;4.68;;;;;;;6.21;54.34;103343.50;5029384;28;20104;-88
2021/04/14 00:05:19;;;;;;;8.48;4.72;;;;;;;6.26;54.38;103341.06;5033243;28;20200;-86
2021/04/14 00:08:04;;;;;;;8.15;4.57;;;;;;;6.40;54.18;103342.47;5029317;28;20108;-88
2021/04/14 00:10:33;;;;;;;8.93;4.93;;;;;;;6.34;53.97;103342.25;5033021;28;20017;-87
2021/04/14 00:13:03;;;;;;;8.13;4.80;;;;;;;6.37;54.17;103345.00;5032994;28;20036;-87
2021/04/14 00:15:36;;;;;;;8.68;4.72;;;;;;;6.42;53.95;103340.81;5033083;28;20032;-88
2021/04/14 00:18:03;;;;;;;6.28;4.32;;;;;;;6.43;54.19;103332.06;5032264;28;20037;-88
2021/04/14 00:20:29;;;;;;;6.38;4.63;;;;;;;6.45;54.16;103337.38;5032688;28;20146;-88
2021/04/14 00:22:56;;;;;;;7.72;4.88;;;;;;;6.51;54.01;103336.72;5032530;28;20116;-88
2021/04/14 00:25:26;;;;;;;9.15;3.80;;;;;;;6.53;54.23;103330.69;5028797;28;20120;-88
2021/04/14 00:27:52;;;;;;;8.23;5.10;;;;;;;6.53;54.02;103329.75;5031386;28;20025;-88
2021/04/14 00:30:20;;;;;;;14.77;7.32;;;;;;;6.55;54.27;103330.72;5032427;28;20033;-89
2021/04/14 00:32:48;;;;;;;6.72;4.72;;;;;;;6.54;54.37;103324.56;5032649;28;20025;-87
2021/04/14 00:35:16;;;;;;;9.40;5.03;;;;;;;6.57;54.32;103318.53;5032476;28;20033;-88
2021/04/14 00:37:43;;;;;;;8.65;4.75;;;;;;;6.58;54.30;103323.84;5028542;28;20037;-89
2021/04/14 00:40:14;;;;;;;7.55;4.55;;;;;;;6.62;54.62;103315.19;5032185;28;20123;-88
2021/04/14 00:42:41;;;;;;;8.85;4.80;;;;;;;6.62;54.57;103320.47;5024400;28;20023;-87
2021/04/14 00:45:08;;;;;;;9.65;5.30;;;;;;;6.64;54.77;103302.06;5032355;28;20033;-89
2021/04/14 00:47:34;;;;;;;9.18;5.35;;;;;;;6.66;54.35;103308.31;5032332;28;20032;-88
2021/04/14 00:50:03;;;;;;;7.60;5.45;;;;;;;6.69;54.46;103312.78;5032134;28;20052;-88
2021/04/14 00:52:29;;;;;;;7.38;5.07;;;;;;;6.70;54.62;103304.91;5032208;28;20057;-88
2021/04/14 00:54:56;;;;;;;8.32;4.88;;;;;;;6.71;54.55;103303.22;5031672;28;20037;-88
2021/04/14 00:57:22;;;;;;;8.30;5.43;;;;;;;6.70;54.39;103297.00;5028821;28;20030;-87
2021/04/14 00:59:49;;;;;;;7.40;4.82;;;;;;;6.70;54.46;103294.38;5031156;28;20499;-87
2021/04/14 01:02:15;;;;;;;6.93;4.45;;;;;;;6.71;54.61;103297.94;5027008;28;20033;-87
2021/04/14 01:04:43;;;;;;;8.38;5.03;;;;;;;6.74;54.63;103293.69;5028969;28;20032;-88
2021/04/14 01:07:10;;;;;;;6.60;4.85;;;;;;;6.78;54.51;103298.19;5031134;28;20071;-88
2021/04/14 01:09:36;;;;;;;6.18;4.45;;;;;;;6.85;54.81;103301.06;5031845;28;20053;-87
2021/04/14 01:12:03;;;;;;;10.40;5.30;;;;;;;6.88;54.81;103302.06;5029716;28;20037;-87
2021/04/14 01:14:30;;;;;;;6.88;4.70;;;;;;;6.90;54.78;103297.75;5031849;28;20381;-87
2021/04/14 01:16:56;;;;;;;7.75;4.60;;;;;;;6.94;54.50;103298.72;5031477;28;20037;-87
2021/04/14 01:19:23;;;;;;;7.10;4.40;;;;;;;6.94;54.21;103294.38;5029306;28;20116;-86
2021/04/14 01:21:49;;;;;;;6.22;4.20;;;;;;;6.97;54.10;103294.44;5031978;28;20037;-87
2021/04/14 01:24:17;;;;;;;7.05;5.13;;;;;;;7.00;54.14;103288.38;5031813;28;20052;-87
2021/04/14 01:26:44;;;;;;;7.47;4.15;;;;;;;7.03;54.04;103295.50;5031914;28;20018;-87
2021/04/14 01:29:13;;;;;;;6.82;4.32;;;;;;;7.04;53.93;103292.94;5029576;28;20030;-87
2021/04/14 01:31:41;;;;;;;7.88;4.35;;;;;;;7.03;53.82;103296.41;5029250;28;20026;-88
2021/04/14 01:34:11;;;;;;;12.63;5.22;;;;;;;7.03;53.96;103291.16;5029823;28;20033;-89
2021/04/14 01:36:47;;;;;;;6.07;4.35;;;;;;;7.05;54.00;103289.47;5032160;28;20040;-88
2021/04/14 01:39:23;;;;;;;8.48;4.60;;;;;;;7.04;53.65;103286.75;5030875;28;20469;-85
2021/04/14 01:41:58;;;;;;;7.53;5.13;;;;;;;7.03;53.82;103291.16;5032082;28;20060;-87
2021/04/14 01:44:25;;;;;;;7.88;4.97;;;;;;;6.98;53.75;103287.47;5028707;28;20057;-87
2021/04/14 01:46:51;;;;;;;7.85;5.60;;;;;;;6.98;53.70;103292.72;5032016;28;20078;-86
2021/04/14 01:49:18;;;;;;;11.20;5.25;;;;;;;6.98;53.60;103298.00;5031906;28;20025;-88
2021/04/14 01:51:44;;;;;;;8.02;5.07;;;;;;;6.96;53.89;103289.13;5031671;28;20030;-88
2021/04/14 01:54:12;;;;;;;9.18;5.43;;;;;;;6.95;54.09;103282.97;5032016;28;20017;-88
2021/04/14 01:56:40;;;;;;;12.15;6.00;;;;;;;6.93;53.78;103289.06;5031891;28;20386;-87
2021/04/14 01:59:06;;;;;;;9.70;5.85;;;;;;;6.91;54.01;103290.72;5029035;28;20032;-88
2021/04/14 02:01:33;;;;;;;9.55;5.78;;;;;;;6.90;53.76;103296.84;5031776;28;20028;-86
2021/04/14 02:03:59;;;;;;;10.63;6.03;;;;;;;6.90;53.86;103295.13;5031667;28;20116;-87
2021/04/14 02:06:26;;;;;;;9.98;5.53;;;;;;;6.91;53.78;103299.50;5030553;28;20609;-88
2021/04/14 02:08:52;;;;;;;10.30;5.30;;;;;;;6.92;53.93;103297.78;5031586;28;20179;-87
2021/04/14 02:11:19;;;;;;;10.40;6.10;;;;;;;6.95;53.69;103292.59;5034412;28;20029;-87
2021/04/14 02:13:46;;;;;;;8.30;5.65;;;;;;;6.95;53.48;103292.59;5032912;28;20026;-87
2021/04/14 02:16:16;;;;;;;8.38;5.82;;;;;;;6.99;53.56;103293.63;5031424;28;20029;-87
2021/04/14 02:18:43;;;;;;;9.15;6.13;;;;;;;6.96;53.30;103297.03;5035714;28;20034;-87
2021/04/14 02:21:10;;;;;;;9.40;5.22;;;;;;;6.98;52.96;103287.47;5048819;28;20052;-86
2021/04/14 02:23:41;;;;;;;8.00;4.70;;;;;;;7.03;52.84;103285.88;5048748;28;20029;-86
2021/04/14 02:26:12;;;;;;;8.10;5.03;;;;;;;7.05;52.74;103286.84;5044444;28;20097;-89
2021/04/14 02:28:39;;;;;;;11.52;5.20;;;;;;;7.03;52.55;103285.88;5053109;28;20100;-87
2021/04/14 02:31:06;;;;;;;10.82;4.88;;;;;;;7.06;52.38;103291.22;5048904;28;20021;-88
2021/04/14 02:33:33;;;;;;;9.35;5.07;;;;;;;7.07;52.24;103279.84;5055679;28;20013;-87
2021/04/14 02:36:00;;;;;;;7.50;4.72;;;;;;;7.06;52.08;103278.06;5051580;28;20451;-88
2021/04/14 02:38:27;;;;;;;8.93;5.35;;;;;;;7.10;51.83;103269.44;5055984;28;20033;-86
2021/04/14 02:40:54;;;;;;;11.48;4.82;;;;;;;7.09;51.80;103270.28;5057161;28;20028;-87
2021/04/14 02:43:22;;;;;;;6.88;4.45;;;;;;;7.10;51.89;103276.41;5057097;28;20093;-87
2021/04/14 02:45:49;;;;;;;8.18;5.18;;;;;;;7.09;51.67;103272.00;5043463;28;20035;-88
2021/04/14 02:48:16;;;;;;;8.70;5.55;;;;;;;7.10;51.66;103265.88;5039200;28;20044;-89
2021/04/14 02:50:42;;;;;;;8.25;5.18;;;;;;;7.06;51.85;103261.34;5046360;28;20025;-89
2021/04/14 02:53:09;;;;;;;7.30;5.10;;;;;;;7.09;51.94;103267.63;5035631;28;20034;-88
2021/04/14 02:55:37;;;;;;;8.25;5.38;;;;;;;7.06;51.87;103264.88;5036036;28;20623;-89
2021/04/14 02:58:04;;;;;;;9.45;5.10;;;;;;;7.06;51.97;103270.16;5036192;28;20052;-89
2021/04/14 03:00:31;;;;;;;9.80;5.80;;;;;;;7.05;52.07;103267.47;5033110;28;20030;-89
2021/04/14 03:02:58;;;;;;;11.80;5.18;;;;;;;7.05;51.88;103257.84;5035605;28;20064;-89
2021/04/14 03:05:29;;;;;;;8.50;5.00;;;;;;;7.07;52.08;103258.75;5035562;28;20071;-88
2021/04/14 03:07:57;;;;;;;9.05;5.35;;;;;;;7.07;52.13;103256.13;5035255;28;20455;-89
2021/04/14 03:10:25;;;;;;;8.45;4.88;;;;;;;7.06;52.06;103253.44;5034679;28;20025;-88
2021/04/14 03:12:52;;;;;;;10.75;4.57;;;;;;;7.06;51.85;103259.59;5034990;28;20112;-89
2021/04/14 03:15:23;;;;;;;9.00;4.63;;;;;;;7.09;51.77;103259.72;5034626;28;20048;-88
2021/04/14 03:17:49;;;;;;;7.47;4.95;;;;;;;7.06;51.56;103256.97;5034603;28;20033;-89
2021/04/14 03:20:17;;;;;;;8.35;5.47;;;;;;;7.06;51.46;103259.59;5034449;28;20029;-89
2021/04/14 03:22:43;;;;;;;9.48;4.93;;;;;;;7.09;51.37;103254.44;5034661;28;20025;-88
2021/04/14 03:25:10;;;;;;;9.02;4.82;;;;;;;7.10;51.18;103256.25;5034507;28;20033;-88
2021/04/14 03:27:37;;;;;;;10.15;4.78;;;;;;;7.04;51.03;103255.13;5034460;28;20026;-89
2021/04/14 03:30:06;;;;;;;9.57;5.32;;;;;;;7.11;50.93;103254.50;5034317;28;20107;-89
2021/04/14 03:32:33;;;;;;;7.25;4.95;;;;;;;7.11;50.88;103258.00;5031244;28;20476;-89
2021/04/14 03:34:59;;;;;;;9.20;4.68;;;;;;;7.12;51.10;103254.53;5034145;28;20048;-88
2021/04/14 03:37:26;;;;;;;7.90;4.82;;;;;;;7.13;50.94;103256.34;5034326;28;20613;-87
2021/04/14 03:39:52;;;;;;;10.52;4.63;;;;;;;7.13;51.21;103255.44;5034475;28;20120;-88
2021/04/14 03:42:19;;;;;;;13.05;5.35;;;;;;;7.10;50.91;103253.59;5034985;28;20112;-87
2021/04/14 03:44:51;;;;;;;7.07;4.47;;;;;;;7.07;51.00;103245.59;5034421;28;20029;-87
2021/04/14 03:47:19;;;;;;;9.40;4.70;;;;;;;7.03;51.32;103248.97;5034338;28;20029;-87
2021/04/14 03:49:45;;;;;;;8.98;5.18;;;;;;;6.99;51.37;103247.09;5034038;28;20091;-90
2021/04/14 03:52:12;;;;;;;8.25;5.80;;;;;;;6.98;51.58;103245.28;5034460;28;20084;-89
2021/04/14 03:54:39;;;;;;;6.68;4.72;;;;;;;6.97;51.58;103246.13;5033940;28;20068;-89
2021/04/14 03:57:06;;;;;;;8.90;5.15;;;;;;;6.96;51.63;103241.69;5034005;28;20033;-89
2021/04/14 03:59:32;;;;;;;10.25;5.15;;;;;;;6.92;52.01;103251.22;5033938;28;20396;-88
2021/04/14 04:01:58;;;;;;;7.93;5.05;;;;;;;6.93;51.74;103247.75;5033780;28;20457;-88
2021/04/14 04:04:24;;;;;;;7.68;5.28;;;;;;;6.93;51.91;103246.88;5033801;28;20467;-88
2021/04/14 04:06:51;;;;;;;8.32;5.60;;;;;;;6.92;52.10;103250.34;5033656;28;20031;-88
2021/04/14 04:09:17;;;;;;;8.75;6.65;;;;;;;6.89;52.07;103247.59;5033656;28;20021;-88
2021/04/14 04:11:44;;;;;;;7.95;5.30;;;;;;;6.87;52.00;103241.41;5033492;28;20022;-88
2021/04/14 04:14:11;;;;;;;8.52;4.95;;;;;;;6.89;52.04;103245.88;5033961;28;20107;-89
2021/04/14 04:16:37;;;;;;;9.35;5.03;;;;;;;6.85;51.92;103248.34;5033086;28;20095;-88
2021/04/14 04:19:03;;;;;;;7.80;4.38;;;;;;;6.85;51.75;103240.44;5033651;28;20040;-88
2021/04/14 04:21:30;;;;;;;6.72;4.97;;;;;;;6.86;51.79;103245.75;5033437;28;20467;-89
2021/04/14 04:23:56;;;;;;;6.10;4.15;;;;;;;6.84;51.60;103246.53;5033515;28;20033;-88
2021/04/14 04:26:22;;;;;;;7.85;4.40;;;;;;;6.82;51.98;103245.59;5033717;28;20021;-89
2021/04/14 04:28:49;;;;;;;6.55;4.70;;;;;;;6.84;51.85;103246.53;5034051;28;20491;-90
2021/04/14 04:31:16;;;;;;;6.00;4.88;;;;;;;6.84;51.85;103241.28;5033285;28;20038;-88
2021/04/14 04:33:42;;;;;;;7.32;4.88;;;;;;;6.82;51.93;103237.69;5032774;28;20032;-88
2021/04/14 04:36:18;;;;;;;8.60;4.53;;;;;;;6.85;51.64;103241.31;5033676;28;20033;-88
2021/04/14 04:38:44;;;;;;;6.78;4.60;;;;;;;6.77;51.67;103245.44;5032919;28;20030;-88
2021/04/14 04:41:10;;;;;;;7.82;4.88;;;;;;;6.75;51.47;103237.50;5033066;28;20049;-89
2021/04/14 04:43:37;;;;;;;8.45;4.43;;;;;;;6.71;51.83;103245.25;5032981;28;20083;-87
2021/04/14 04:46:03;;;;;;;9.50;5.25;;;;;;;6.67;51.79;103241.59;5033235;28;20099;-89
2021/04/14 04:48:29;;;;;;;7.75;4.75;;;;;;;6.65;52.09;103248.53;5032979;28;20037;-89
2021/04/14 04:50:56;;;;;;;10.05;5.55;;;;;;;6.61;52.11;103254.56;5032573;28;20026;-88
2021/04/14 04:53:24;;;;;;;7.90;4.63;;;;;;;6.62;52.42;103251.09;5032676;28;20463;-88
2021/04/14 04:55:52;;;;;;;8.43;5.03;;;;;;;6.61;52.65;103251.91;5030172;28;20099;-89
2021/04/14 04:58:19;;;;;;;6.95;5.07;;;;;;;6.64;52.68;103254.66;5031948;28;20025;-89
2021/04/14 05:00:47;;;;;;;10.55;4.75;;;;;;;6.68;52.68;103260.91;5026986;28;20030;-90
2021/04/14 05:03:15;;;;;;;6.03;4.53;;;;;;;6.73;52.63;103255.00;5026811;28;20121;-88
2021/04/14 05:05:42;;;;;;;8.55;5.55;;;;;;;6.79;52.77;103254.28;5012846;28;20053;-86
2021/04/14 05:08:10;;;;;;;8.73;5.78;;;;;;;6.84;52.96;103257.09;5014938;28;20030;-89
2021/04/14 05:10:37;;;;;;;9.40;4.90;;;;;;;6.88;53.01;103264.25;5031165;28;20063;-89
2021/04/14 05:13:05;;;;;;;10.98;5.40;;;;;;;6.93;53.04;103268.84;5032594;28;20033;-90
2021/04/14 05:15:36;;;;;;;9.13;5.50;;;;;;;7.01;53.09;103261.19;5032440;28;20022;-89
2021/04/14 05:18:03;;;;;;;7.13;4.93;;;;;;;7.04;53.24;103270.94;5032593;28;20060;-90
2021/04/14 05:20:29;;;;;;;5.57;4.18;;;;;;;7.09;53.02;103267.63;5032154;28;20022;-87
2021/04/14 05:22:56;;;;;;;8.90;5.57;;;;;;;7.12;53.10;103290.56;5032278;28;20034;-89
2021/04/14 05:25:27;;;;;;;9.57;4.68;;;;;;;7.06;52.86;103291.22;5032137;28;20036;-90
2021/04/14 05:27:56;;;;;;;10.93;5.85;;;;;;;6.93;52.58;103286.41;5031686;28;20036;-88
2021/04/14 05:30:23;;;;;;;9.70;5.30;;;;;;;6.74;52.34;103288.41;5031843;28;20060;-89
2021/04/14 05:32:50;;;;;;;14.27;7.05;;;;;;;7.09;52.17;103296.63;5025070;28;20358;-88
2021/04/14 05:35:17;;;;;;;15.15;7.95;;;;;;;7.02;53.20;103294.63;5023803;28;20030;-89
2021/04/14 05:37:43;;;;;;;13.48;8.45;;;;;;;6.99;54.29;103293.63;5027200;28;20684;-86
2021/04/14 05:40:10;;;;;;;16.75;8.00;;;;;;;7.05;54.41;103300.00;5030155;28;20034;-90
2021/04/14 05:42:41;;;;;;;17.48;9.05;;;;;;;6.94;55.34;103298.72;5032079;28;20026;-86
2021/04/14 05:45:09;;;;;;;13.57;7.80;;;;;;;6.91;55.49;103301.25;5030651;28;20128;-89
2021/04/14 05:47:36;;;;;;;15.40;8.73;;;;;;;6.95;55.44;103298.81;5035903;28;20076;-89
2021/04/14 05:50:05;;;;;;;15.27;8.25;;;;;;;7.06;54.93;103296.50;5031295;28;20084;-90
2021/04/14 05:52:31;;;;;;;13.60;7.65;;;;;;;6.99;55.07;103305.06;5032753;28;20091;-91
2021/04/14 05:55:00;;;;;;;14.48;8.07;;;;;;;7.23;53.95;103304.13;5025191;28;20080;-84
2021/04/14 05:57:27;;;;;;;11.85;7.68;;;;;;;7.48;53.77;103304.91;5031293;28;20053;-88
2021/04/14 05:59:53;;;;;;;11.65;6.45;;;;;;;7.21;51.42;103305.78;5027329;28;20033;-85
2021/04/14 06:02:19;;;;;;;9.57;5.15;;;;;;;7.28;51.17;103318.34;5036355;28;20048;-88
2021/04/14 06:04:45;;;;;;;11.27;6.03;;;;;;;7.51;51.22;103320.84;5033686;28;20036;-91
2021/04/14 06:07:11;;;;;;;12.50;7.00;;;;;;;7.60;51.71;103329.03;5031477;28;20049;-88
2021/04/14 06:09:37;;;;;;;12.57;6.15;;;;;;;7.49;52.36;103336.63;5032935;28;20018;-90
2021/04/14 06:12:04;;;;;;;11.52;6.35;;;;;;;7.53;51.80;103335.00;5034541;28;20175;-90
2021/04/14 06:14:30;;;;;;;8.90;5.78;;;;;;;7.54;52.58;103326.19;5031028;28;20029;-90
2021/04/14 06:16:56;;;;;;;10.52;5.45;;;;;;;7.52;52.18;103323.53;5035632;28;20108;-90
2021/04/14 06:19:22;;;;;;;8.80;5.50;;;;;;;7.55;52.38;103321.00;5035626;28;20117;-89
2021/04/14 06:21:48;;;;;;;9.63;5.78;;;;;;;7.63;52.15;103321.25;5035442;28;20032;-89
2021/04/14 06:24:15;;;;;;;10.98;5.30;;;;;;;7.70;52.64;103317.97;5034980;28;20502;-90
2021/04/14 06:26:46;;;;;;;9.77;5.25;;;;;;;7.76;52.53;103323.44;5034449;28;20033;-89
2021/04/14 06:29:13;;;;;;;10.27;5.45;;;;;;;7.82;52.38;103328.00;5033411;28;20037;-87
2021/04/14 06:31:40;;;;;;;8.95;5.55;;;;;;;7.86;52.22;103324.63;5033708;28;20057;-90
2021/04/14 06:34:13;;;;;;;11.68;5.85;;;;;;;7.91;51.83;103324.75;5031464;28;20159;-88
2021/04/14 06:36:39;;;;;;;;;;;;;;;8.07;50.48;103331.41;5031422;28;20033;-89
2021/04/14 06:39:07;;;;;;;11.35;6.05;;;;;;;7.92;50.47;103330.09;5034987;28;19913;-90
2021/04/14 06:45:20;;;;;;;13.15;6.57;;;;;;;8.21;49.59;103331.81;5133436;27;20366;-83
2021/04/14 06:50:31;;;;;;;12.20;7.40;;;;;;;8.21;50.20;103331.81;5067223;28;20899;-86
2021/04/14 06:55:56;;;;;;;13.02;7.05;;;;;;;8.23;50.37;103335.41;5074095;28;20430;-88
2021/04/14 06:58:33;;;;;;;17.33;7.55;;;;;;;8.32;50.86;103340.06;5069924;28;20036;-89
2021/04/14 07:01:05;;;;;;;12.95;7.88;;;;;;;8.41;50.54;103335.94;5051953;28;20547;-86
2021/04/14 07:03:56;;;;;;;15.05;7.32;;;;;;;8.48;50.88;103336.16;5043647;28;20077;-87
2021/04/14 07:06:28;;;;;;;18.25;8.90;;;;;;;8.51;50.57;103336.22;5048771;28;20098;-90
2021/04/14 07:09:32;;;;;;;17.15;9.75;;;;;;;8.63;50.81;103333.06;5048355;28;20045;-89
2021/04/14 07:12:01;;;;;;;15.80;8.73;;;;;;;8.56;51.39;103340.81;5048669;28;20113;-86
2021/04/14 07:14:28;;;;;;;15.80;9.02;;;;;;;8.65;50.92;103340.16;5049631;28;20036;-88
2021/04/14 07:22:28;;;;;;;15.02;8.07;;;;;;;8.76;50.36;103329.00;5064674;28;20424;-86
2021/04/14 07:25:01;;;;;;;17.90;9.18;;;;;;;8.68;50.67;103334.06;5062713;28;20044;-85
2021/04/14 07:27:55;;;;;;;17.67;8.98;;;;;;;8.72;50.49;103328.00;5050161;28;20039;-87
2021/04/14 07:30:30;;;;;;;15.82;8.90;;;;;;;8.71;50.67;103329.78;5050188;28;20029;-86
2021/04/14 07:36:07;;;;;;;15.23;8.70;;;;;;;8.78;49.94;103329.94;5074052;27;20428;-91
2021/04/14 07:38:46;;;;;;;14.05;8.60;;;;;;;8.77;50.32;103330.78;5058479;28;20488;-96
2021/04/14 07:41:40;;;;;;;14.95;8.77;;;;;;;8.77;50.43;103336.06;5062104;28;20039;-90
2021/04/14 07:44:15;;;;;;;16.67;9.48;;;;;;;8.79;50.33;103327.34;5058413;28;20080;-87
2021/04/14 07:46:46;;;;;;;14.55;8.25;;;;;;;8.79;51.10;103331.75;5059467;28;20030;-87
2021/04/14 07:49:14;;;;;;;14.45;8.70;;;;;;;8.78;50.58;103333.47;5055231;28;20072;-86
2021/04/14 07:51:41;;;;;;;13.88;9.18;;;;;;;8.79;50.50;103332.63;5054126;28;20018;-86
2021/04/14 07:54:14;;;;;;;14.35;8.68;;;;;;;8.84;50.66;103338.03;5052631;28;20165;-87
2021/04/14 07:59:43;;;;;;;14.75;8.48;;;;;;;8.95;50.35;103333.94;5138252;27;20375;-85
2021/04/14 08:02:12;;;;;;;13.75;8.45;;;;;;;8.93;50.45;103322.41;5088453;28;20028;-85
2021/04/14 08:04:42;;;;;;;16.30;9.20;;;;;;;8.92;50.45;103323.25;5089120;28;20459;-89
2021/04/14 08:07:15;;;;;;;13.73;9.40;;;;;;;8.97;50.01;103324.31;5087653;28;20438;-90
2021/04/14 08:10:00;;;;;;;14.60;8.40;;;;;;;9.02;50.57;103325.31;5087835;28;20024;-83
2021/04/14 08:12:37;;;;;;;16.08;9.02;;;;;;;9.04;50.58;103325.34;5085676;28;20039;-85
2021/04/14 08:15:27;;;;;;;15.32;10.23;;;;;;;9.07;50.75;103323.69;5085098;28;20443;-83
2021/04/14 08:18:05;;;;;;;17.90;10.00;;;;;;;9.17;50.07;103321.25;5087945;28;20040;-81
2021/04/14 08:20:33;;;;;;;17.73;9.98;;;;;;;9.27;50.04;103323.31;5087386;28;20437;-82
2021/04/14 08:25:53;;;;;;;17.02;9.40;;;;;;;9.49;49.87;103330.00;5062298;27;20385;-77
2021/04/14 08:28:35;;;;;;;19.02;11.48;;;;;;;9.59;50.06;103333.78;5048827;28;20037;-84
2021/04/14 08:31:36;;;;;;;29.05;13.73;;;;;;;9.64;49.93;103332.13;5046832;28;20028;-82
2021/04/14 08:34:26;;;;;;;18.13;10.43;;;;;;;9.86;50.73;103335.31;5046939;28;20036;-77
2021/04/14 08:37:00;;;;;;;17.10;11.07;;;;;;;10.00;50.21;103336.50;5047265;28;20553;-92
2021/04/14 08:45:31;;;;;;;17.15;11.13;;;;;;;10.64;49.72;103325.50;5062347;27;20486;-86
2021/04/14 08:48:22;;;;;;;17.92;10.85;;;;;;;10.80;49.79;103325.78;5048541;28;20069;-87
2021/04/14 08:50:54;;;;;;;15.30;9.73;;;;;;;10.89;49.60;103326.00;5065939;28;20028;-86
2021/04/14 08:53:28;;;;;;;15.07;10.45;;;;;;;10.90;49.21;103324.22;5065789;28;20040;-90
2021/04/14 08:55:55;;;;;;;13.85;8.82;;;;;;;10.96;49.08;103322.56;5059953;28;20552;-87
2021/04/14 08:58:22;;;;;;;17.00;9.88;;;;;;;11.07;49.16;103328.06;5062405;28;20036;-88
2021/04/14 09:00:49;;;;;;;13.50;8.70;;;;;;;11.14;48.98;103316.69;5053333;28;20027;-88
2021/04/14 09:03:21;;;;;;;15.90;8.85;;;;;;;11.34;48.77;103324.13;5051113;28;20037;-86
2021/04/14 09:05:48;;;;;;;15.00;9.15;;;;;;;11.47;48.63;103328.72;5047690;28;20099;-84
2021/04/14 09:08:19;;;;;;;13.88;7.93;;;;;;;11.62;48.18;103320.13;5051070;28;20074;-84
2021/04/14 09:10:52;;;;;;;11.93;7.95;;;;;;;11.73;47.71;103324.72;5062255;28;20037;-83
2021/04/14 09:16:45;;;;;;;13.70;6.80;;;;;;;11.99;46.37;103319.81;5077564;28;20481;-88
2021/04/14 09:27:51;;;;;;;10.57;5.45;;;;;;;12.58;44.41;103321.41;5079932;27;20405;-83
2021/04/14 09:30:30;;;;;;;10.88;5.55;;;;;;;12.76;43.76;103317.19;5056627;28;20025;-83
2021/04/14 09:38:45;;;;;;;12.13;6.68;;;;;;;13.52;41.48;103316.13;4983825;28;20492;-82
2021/04/14 09:44:19;;;;;;;8.05;5.13;;;;;;;14.01;38.68;103312.88;5093893;27;20378;-82
2021/04/14 09:47:15;;;;;;;10.75;5.78;;;;;;;14.17;38.67;103312.97;5097920;28;20371;-83
2021/04/14 09:49:45;;;;;;;8.93;5.00;;;;;;;14.16;38.98;103305.84;5098245;28;20081;-83
2021/04/14 09:52:47;;;;;;;12.18;5.13;;;;;;;14.13;39.16;103311.16;5094499;28;20035;-83
2021/04/14 09:57:54;;;;;;;5.85;4.55;;;;;;;13.83;39.86;103305.69;5063502;27;20426;-83
2021/04/14 10:00:26;;;;;;;7.65;5.13;;;;;;;13.70;39.59;103302.03;5055041;28;20380;-82
2021/04/14 10:02:55;;;;;;;7.50;4.68;;;;;;;13.65;39.64;103300.25;5045018;28;20040;-88
2021/04/14 10:05:27;;;;;;;8.73;5.05;;;;;;;13.61;40.08;103303.75;5048122;28;20033;-90
2021/04/14 10:07:58;;;;;;;8.63;4.88;;;;;;;13.41;40.10;103309.84;5047932;28;20025;-86
2021/04/14 10:10:24;;;;;;;6.65;4.75;;;;;;;13.51;39.87;103302.81;5045934;28;20033;-90
2021/04/14 10:12:53;;;;;;;7.15;4.63;;;;;;;13.45;39.86;103308.97;5042942;28;20029;-92
2021/04/14 10:15:33;;;;;;;8.30;4.95;;;;;;;13.55;38.47;103312.59;5044270;28;20039;-93
2021/04/14 10:18:04;;;;;;;11.23;5.25;;;;;;;13.58;39.14;103308.19;5044196;28;20029;-89
2021/04/14 10:20:35;;;;;;;8.47;5.03;;;;;;;13.63;39.44;103304.66;5046828;28;20027;-93
2021/04/14 10:23:02;;;;;;;10.90;6.13;;;;;;;13.67;38.90;103302.03;5047041;28;20025;-92
2021/04/14 10:25:34;;;;;;;7.78;4.72;;;;;;;13.71;39.38;103306.47;5046247;28;20065;-88
2021/04/14 10:31:05;;;;;;;12.80;4.80;;;;;;;13.62;38.36;103305.53;5047906;28;20396;-79
2021/04/14 10:33:32;;;;;;;7.45;4.72;;;;;;;13.43;39.74;103308.06;5040080;28;20029;-83
2021/04/14 10:36:10;;;;;;;9.48;4.70;;;;;;;13.39;39.62;103306.25;5047784;28;20026;-83
2021/04/14 10:38:37;;;;;;;21.15;4.85;;;;;;;13.17;38.61;103302.50;5047389;28;20064;-85
2021/04/14 10:41:28;;;;;;;9.95;5.07;;;;;;;13.18;37.34;103302.50;5046493;28;20117;-84
2021/04/14 10:43:55;;;;;;;5.22;3.47;;;;;;;12.94;38.30;103301.41;5046408;28;20447;-85
2021/04/14 10:49:05;;;;;;;5.68;3.95;;;;;;;12.84;38.43;103296.88;5141868;27;20360;-84
2021/04/14 10:51:43;;;;;;;8.70;4.22;;;;;;;12.77;39.12;103298.59;5109679;28;20476;-84
2021/04/14 10:54:11;;;;;;;7.63;4.40;;;;;;;12.25;40.83;103312.19;5109882;28;20024;-84
2021/04/14 10:56:39;;;;;;;7.22;4.10;;;;;;;11.86;42.70;103312.50;5110227;28;20046;-84
2021/04/14 10:59:12;;;;;;;10.85;4.38;;;;;;;11.93;42.63;103303.75;5109967;28;20059;-84
2021/04/14 11:01:42;;;;;;;7.00;5.00;;;;;;;11.47;43.61;103319.88;5110036;28;20020;-84
2021/04/14 11:06:53;;;;;;;6.18;3.53;;;;;;;11.02;44.74;103310.28;5070466;27;20410;-85
2021/04/14 11:09:20;;;;;;;4.82;2.92;;;;;;;10.86;44.02;103307.34;5064746;28;20124;-85
2021/04/14 11:11:47;;;;;;;2.45;2.00;;;;;;;10.98;43.62;103304.91;5042686;28;20030;-85
2021/04/14 11:14:16;;;;;;;5.22;1.88;;;;;;;10.90;43.60;103300.34;5040984;28;20045;-85
2021/04/14 11:16:45;;;;;;;3.45;1.83;;;;;;;10.81;43.66;103307.25;5048145;28;20029;-85
2021/04/14 11:19:15;;;;;;;14.18;6.38;;;;;;;10.91;43.79;103303.00;5047165;28;20060;-85
2021/04/14 11:21:42;;;;;;;5.30;1.80;;;;;;;10.49;44.58;103299.59;5038754;28;20025;-84
2021/04/14 11:29:33;;;;;;;3.10;1.30;;;;;;;10.60;45.50;103307.75;5067700;27;20419;-85
2021/04/14 11:32:11;;;;;;;5.20;1.63;;;;;;;10.87;44.67;103300.31;5051950;28;20453;-85
2021/04/14 11:34:38;;;;;;;3.47;1.38;;;;;;;10.87;44.35;103293.22;5057841;28;20096;-86
2021/04/14 11:42:42;;;;;;;2.88;1.27;;;;;;;11.32;42.55;103302.84;5064807;28;20869;-84
2021/04/14 11:45:09;;;;;;;2.42;1.30;;;;;;;11.33;42.62;103298.44;5060525;28;20032;-85
2021/04/14 11:47:39;;;;;;;7.20;1.45;;;;;;;11.11;42.81;103299.84;5052875;28;20053;-85
2021/04/14 11:50:28;;;;;;;6.22;1.40;;;;;;;11.64;42.19;103294.50;5050216;28;20053;-85
2021/04/14 11:52:58;;;;;;;3.10;1.20;;;;;;;11.68;42.45;103294.56;5052123;28;20033;-85
2021/04/14 11:58:22;;;;;;;8.90;1.20;;;;;;;11.70;41.97;103300.75;5063531;28;20903;-85
2021/04/14 12:00:49;;;;;;;6.75;1.30;;;;;;;11.94;42.48;103289.59;5065328;28;20024;-85
2021/04/14 12:03:39;;;;;;;6.63;1.50;;;;;;;12.21;41.52;103296.16;5066063;28;20035;-84
2021/04/14 12:06:06;;;;;;;3.50;1.55;;;;;;;12.16;41.98;103295.22;5058738;28;20029;-84
2021/04/14 12:08:32;;;;;;;4.20;1.20;;;;;;;12.04;41.86;103301.28;5049131;28;20029;-84
2021/04/14 12:11:02;;;;;;;2.40;1.10;;;;;;;12.22;41.09;103285.53;5049454;28;20025;-85
2021/04/14 12:13:29;;;;;;;2.40;1.02;;;;;;;12.45;41.11;103282.28;5047468;28;20111;-85
2021/04/14 12:15:56;;;;;;;2.58;1.13;;;;;;;12.39;40.39;103280.44;5048976;28;20043;-84
2021/04/14 12:18:22;;;;;;;4.65;1.25;;;;;;;12.62;39.43;103286.03;5049355;28;20441;-84
2021/04/14 12:20:49;;;;;;;2.00;1.00;;;;;;;12.68;38.91;103286.97;5049137;28;20028;-84
2021/04/14 12:23:16;;;;;;;4.72;1.30;;;;;;;12.86;39.12;103275.59;5049499;28;20029;-85
2021/04/14 12:25:42;;;;;;;5.18;1.15;;;;;;;13.04;39.57;103278.44;5049067;28;20067;-84
2021/04/14 12:28:08;;;;;;;2.53;1.15;;;;;;;13.19;39.75;103280.31;5049442;28;20488;-84
2021/04/14 12:30:35;;;;;;;4.70;0.80;;;;;;;13.43;39.00;103276.09;5048849;28;20033;-84
2021/04/14 12:33:01;;;;;;;2.47;0.85;;;;;;;13.59;39.09;103279.75;5049085;28;20504;-85
2021/04/14 12:35:28;;;;;;;1.35;0.52;;;;;;;13.72;38.90;103284.28;5049138;28;20502;-85
2021/04/14 12:37:55;;;;;;;3.53;1.48;;;;;;;13.86;38.30;103275.50;5048836;28;20045;-85
2021/04/14 12:40:22;;;;;;;1.75;0.82;;;;;;;14.12;36.86;103274.69;5048602;28;20040;-85
2021/04/14 12:42:48;;;;;;;3.13;0.85;;;;;;;14.43;37.44;103269.47;5048899;28;20488;-85
2021/04/14 12:45:49;;;;;;;3.92;0.80;;;;;;;14.52;36.86;103270.41;5048202;28;20033;-84
2021/04/14 12:48:19;;;;;;;1.92;0.68;;;;;;;14.21;36.57;103270.31;5051439;28;20041;-84
2021/04/14 12:51:04;;;;;;;2.42;1.23;;;;;;;14.17;36.27;103271.19;5038091;28;20043;-85
2021/04/14 12:53:34;;;;;;;1.48;0.60;;;;;;;14.08;37.09;103265.78;5048699;28;20452;-85
2021/04/14 12:56:03;;;;;;;1.98;0.65;;;;;;;13.88;37.54;103263.97;5048210;28;20091;-84